Чертовицкое

Карта отелей и гостиниц, располагающихся рядом с аэропортом Чертовицкое :

Чертовицкое
Воронеж
Воронежская область 51° 48' 54.1188" N, 39° 13' 46.8012" E
Код аэродрома ИКАО
UUOO
Код аэродрома RU
УУОО
Координаты
N51.81503° E039.22967°
Превышение над уровнем моря
157
Основная полоса
12/30
Курс магнитный
121,5/301,5
Длина основной ВПП
2304
Ширина основной ВПП
49
Покрытие основной ВПП
Твёрдое (бетон)
Освещение ВПП
Постоянное
Тип: 
Аэродром
Класс аэродрома: 
Международный
Принадлежность: 
ГА
Статус: 
Действующий
Страна: 
Россия
Регион: 
Воронежская область
Город: 
Воронеж
Дополнительная информация: 
Воронежская область, Россия. Нкр.=(500)м.
Погода: 

Авиационная погода в Воронеже

Регион: 
Погода METAR: 
UUOO 282200Z 06003MPS CAVOK 18/09 Q1019 R30/010070 NOSIG RMK QFE750
Время наблюдения
2022-06-28T22:00:00Z
Температура C
18.0
Точка росы
9.0
Направление ветра
60
Скорость ветра (узлы)
6
Метео видимость
6.21
Облачность
CAVOK
Нижняя граница облачности (футы)
Явления погоды
Условия полета
VFR
Аэропорт подробнее: 

Найти трансфер

С помощью этой формы Вы можете найти трансфер из аэропорта Чертовицкое в город, аэропорт или вокзал:

Погода в аэропортах:

Авиационная погода в Гродно

Регион: 
Погода METAR: 
UMMG 300400Z 03002MPS 5000 BR NSC 19/18 Q1015 NOSIG
Время наблюдения
2022-06-30T04:00:00Z
Температура C
19.0
Точка росы
18.0
Направление ветра
30
Скорость ветра (узлы)
4
Метео видимость
3.11
Облачность
CLR
Нижняя граница облачности (футы)
Явления погоды
BR
Условия полета
MVFR
Аэропорт подробнее: 
CLR — нет облаков ниже 3000 м
BR – дымка (видимость от 1 до 9 км);

Авиационная погода в Магнитогорске

Погода METAR: 
USCM 282200Z 31003MPS 5000 BR SCT040CB 04/02 Q1009 R36/090060 TEMPO 1500 BR RMK QFE719
Время наблюдения
2022-06-28T22:00:00Z
Температура C
4.0
Точка росы
2.0
Направление ветра
310
Скорость ветра (узлы)
6
Метео видимость
3.11
Облачность
SCT
Нижняя граница облачности (футы)
4000
Явления погоды
BR
Условия полета
MVFR
Аэропорт подробнее: 
SCT – разбросанная отдельная облачность;
BR – дымка (видимость от 1 до 9 км);

Авиационная погода в Мирном

Регион: 
Погода METAR: 
UERR 282200Z 06003MPS 0700 FG VV003 10/10 Q1000 R07/CLRD60 TEMPO 0300 FG VV001 RMK QBB070 QFE720/0960
Время наблюдения
2022-06-28T22:00:00Z
Температура C
10.0
Точка росы
10.0
Направление ветра
60
Скорость ветра (узлы)
6
Метео видимость
0.43
Облачность
OVX
Нижняя граница облачности (футы)
0
Явления погоды
FG
Условия полета
LIFR
Аэропорт подробнее: 
FG – туман (небо не видно, температура воздуха выше нуля или ноль);

Авиационная погода в Закаталы

Регион: 
Погода METAR: 
UBBY 040100Z 08014KT 5000 -SHRA SCT040CB OVC045 15/14 Q1019 NOSIG RMK MT OBSC
Время наблюдения
2022-07-04T01:00:00Z
Температура C
15.0
Точка росы
14.0
Направление ветра
80
Скорость ветра (узлы)
14
Метео видимость
3.11
Облачность
SCT
OVC
Нижняя граница облачности (футы)
4000
4500
Явления погоды
-SHRA
Условия полета
MVFR
SCT – разбросанная отдельная облачность; OVC – сплошная облачность;
-SHRA - слабый ливневой дождь;